Time;durP1;ratioP1;P1;durP2;ratioP2;P2;SDS_P1;SDS_P2;PMS_P1;PMS_P2;Temp;Humidity;BMP_temperature;BMP_pressure;BME280_temperature;BME280_humidity;BME280_pressure;Samples;Min_cycle;Max_cycle;Signal;HPM_P1;HPM_P2
2020/12/21 00:00:52;;;;;;;15.13;2.87;;;9.50;99.90;;;;;;5040786;28;20255;-91
2020/12/21 00:03:28;;;;;;;8.53;2.30;;;9.40;99.90;;;;;;5050828;28;20208;-96
2020/12/21 00:09:03;;;;;;;9.10;2.53;;;9.40;99.90;;;;;;5031477;28;20235;-96
2020/12/21 00:11:47;;;;;;;10.00;2.23;;;9.40;99.90;;;;;;5050246;28;20227;-96
2020/12/21 00:14:38;;;;;;;12.10;3.40;;;9.30;99.90;;;;;;5030687;28;20189;-96
2020/12/21 00:17:25;;;;;;;11.40;2.70;;;9.30;99.90;;;;;;5029119;28;20197;-96
2020/12/21 00:20:04;;;;;;;12.23;2.10;;;9.30;99.90;;;;;;5039794;28;20220;-95
2020/12/21 00:25:10;;;;;;;14.33;3.27;;;9.30;99.90;;;;;;5058461;28;20221;-96
2020/12/21 00:30:38;;;;;;;8.10;2.17;;;9.30;99.90;;;;;;5057124;28;20208;-96
2020/12/21 00:35:44;;;;;;;8.07;1.97;;;9.30;99.90;;;;;;5456481;22;20248;-96
2020/12/21 00:38:17;;;;;;;10.97;2.17;;;9.30;99.90;;;;;;5063623;28;20276;-96
2020/12/21 00:40:54;;;;;;;7.03;2.30;;;9.30;99.90;;;;;;4714219;28;9999945;-96
2020/12/21 00:43:26;;;;;;;10.27;2.20;;;9.30;99.90;;;;;;5062598;28;21043;-96
2020/12/21 00:45:59;;;;;;;7.60;2.40;;;9.30;99.90;;;;;;5063569;28;20287;-96
2020/12/21 00:48:33;;;;;;;11.17;2.73;;;9.30;99.90;;;;;;5063874;28;20786;-96
2020/12/21 00:51:04;;;;;;;11.60;2.30;;;9.30;99.90;;;;;;5063629;28;20211;-96
2020/12/21 00:53:49;;;;;;;11.83;2.40;;;9.30;99.90;;;;;;5065334;28;20204;-96
2020/12/21 00:59:25;;;;;;;6.97;2.07;;;9.20;99.90;;;;;;5986096;22;20399;-96
2020/12/21 01:05:03;;;;;;;8.13;3.30;;;9.20;99.90;;;;;;5046441;28;20209;-96
2020/12/21 01:07:33;;;;;;;10.00;3.33;;;9.20;99.90;;;;;;5027712;28;20292;-96
2020/12/21 01:10:04;;;;;;;6.90;2.63;;;9.20;99.90;;;;;;5043410;28;20212;-94
2020/12/21 01:12:37;;;;;;;12.03;2.20;;;9.10;99.90;;;;;;5022727;28;20488;-94
2020/12/21 01:15:09;;;;;;;10.90;2.90;;;9.20;99.90;;;;;;5006885;28;20584;-94
2020/12/21 01:17:43;;;;;;;7.73;2.40;;;9.20;99.90;;;;;;5012368;28;20520;-95
2020/12/21 01:20:18;;;;;;;8.93;2.43;;;9.20;99.90;;;;;;5050047;28;20551;-96
2020/12/21 01:22:50;;;;;;;10.90;2.33;;;9.20;99.90;;;;;;5025030;28;20232;-96
2020/12/21 01:25:21;;;;;;;12.60;2.17;;;9.20;99.90;;;;;;5048812;28;20205;-96
2020/12/21 01:27:55;;;;;;;10.57;2.33;;;9.20;99.90;;;;;;5020509;28;20209;-96
2020/12/21 01:30:26;;;;;;;8.43;1.80;;;9.20;99.90;;;;;;5024023;28;20589;-95
2020/12/21 01:32:58;;;;;;;9.00;2.47;;;9.20;99.90;;;;;;5062264;28;20234;-96
2020/12/21 01:35:29;;;;;;;8.17;1.70;;;9.20;99.90;;;;;;5029290;28;20270;-96
2020/12/21 01:38:08;;;;;;;5.80;2.20;;;9.20;99.90;;;;;;5029102;28;20205;-96
2020/12/21 01:41:21;;;;;;;5.50;2.00;;;9.30;99.90;;;;;;5040907;28;20330;-94
2020/12/21 01:44:03;;;;;;;9.00;2.53;;;9.20;99.90;;;;;;5025248;28;20227;-96
2020/12/21 01:46:36;;;;;;;8.40;2.33;;;9.20;99.90;;;;;;5029420;28;20240;-95
2020/12/21 01:49:08;;;;;;;8.80;2.13;;;9.20;99.90;;;;;;5044301;28;20251;-96
2020/12/21 01:51:44;;;;;;;7.73;2.50;;;9.20;99.90;;;;;;5042097;28;20243;-96
2020/12/21 01:54:17;;;;;;;7.57;2.10;;;9.20;99.90;;;;;;5051292;28;20215;-96
2020/12/21 01:56:50;;;;;;;7.03;2.50;;;9.20;99.90;;;;;;5045948;28;20286;-96
2020/12/21 01:59:21;;;;;;;9.50;2.30;;;9.20;99.90;;;;;;5045196;28;20208;-96
2020/12/21 02:01:54;;;;;;;8.37;2.50;;;9.20;99.90;;;;;;5038215;28;20228;-96
2020/12/21 02:04:41;;;;;;;10.97;2.60;;;9.20;99.90;;;;;;5040054;28;20291;-96
2020/12/21 02:07:26;;;;;;;6.90;1.97;;;9.10;99.90;;;;;;5037366;28;20271;-95
2020/12/21 02:10:14;;;;;;;10.87;2.50;;;9.20;99.90;;;;;;5033231;28;20266;-94
2020/12/21 02:12:50;;;;;;;12.03;3.13;;;9.20;99.90;;;;;;5041574;28;20201;-96
2020/12/21 02:22:25;;;;;;;10.10;2.20;;;9.20;99.90;;;;;;4975272;28;20231;-96
2020/12/21 02:25:04;;;;;;;7.37;2.67;;;9.20;99.90;;;;;;4953940;29;20200;-96
2020/12/21 03:00:06;;;;;;;6.73;2.77;;;9.30;99.90;;;;;;4715274;28;10001436;-94
2020/12/21 03:02:40;;;;;;;6.70;2.60;;;9.30;99.90;;;;;;5058823;28;20227;-94
2020/12/21 03:05:19;;;;;;;6.87;2.40;;;9.20;99.90;;;;;;5066481;28;20672;-94
2020/12/21 03:08:11;;;;;;;8.20;2.50;;;9.20;99.90;;;;;;5068626;28;20234;-93
2020/12/21 03:10:59;;;;;;;7.30;2.27;;;9.20;99.90;;;;;;5059061;28;20196;-92
2020/12/21 03:13:37;;;;;;;10.90;2.53;;;9.20;99.90;;;;;;5063455;28;20214;-93
2020/12/21 03:16:17;;;;;;;10.43;2.57;;;9.20;99.90;;;;;;5063176;28;20196;-92
2020/12/21 03:18:48;;;;;;;6.97;2.60;;;9.20;99.90;;;;;;5053092;28;20208;-90
2020/12/21 03:21:20;;;;;;;7.73;2.70;;;9.20;99.90;;;;;;5049748;28;20321;-90
2020/12/21 03:23:53;;;;;;;7.07;2.53;;;9.20;99.90;;;;;;5056942;28;20629;-91
2020/12/21 03:26:25;;;;;;;5.57;2.30;;;9.20;99.90;;;;;;5056160;28;20216;-95
2020/12/21 03:28:57;;;;;;;8.20;3.07;;;9.20;99.90;;;;;;5042034;28;20216;-94
2020/12/21 03:31:33;;;;;;;14.30;3.20;;;9.20;99.90;;;;;;5064193;28;20212;-92
2020/12/21 03:34:22;;;;;;;6.93;2.60;;;9.20;99.90;;;;;;5040021;28;20296;-96
2020/12/21 03:36:59;;;;;;;7.23;2.90;;;9.20;99.90;;;;;;5057217;28;20209;-92
2020/12/21 03:39:37;;;;;;;5.87;2.57;;;9.20;99.90;;;;;;5043325;28;20193;-95
2020/12/21 03:42:18;;;;;;;6.70;3.00;;;9.20;99.90;;;;;;5053563;28;20228;-96
2020/12/21 03:45:07;;;;;;;8.70;3.40;;;9.10;99.90;;;;;;5065684;28;20185;-95
2020/12/21 03:47:44;;;;;;;6.77;3.50;;;9.10;99.90;;;;;;5057895;28;20208;-94
2020/12/21 03:50:20;;;;;;;10.07;3.90;;;9.10;99.90;;;;;;5066951;28;20204;-95
2020/12/21 03:53:03;;;;;;;5.77;2.80;;;9.10;99.90;;;;;;5058086;28;20184;-92
2020/12/21 03:55:34;;;;;;;10.40;3.70;;;9.10;99.90;;;;;;5070762;28;20207;-93
2020/12/21 03:58:19;;;;;;;8.60;3.37;;;9.10;99.90;;;;;;5055706;28;20236;-94
2020/12/21 04:00:54;;;;;;;8.60;3.00;;;9.00;99.90;;;;;;5037861;28;20239;-94
2020/12/21 04:06:50;;;;;;;11.23;3.53;;;8.80;99.90;;;;;;5065873;28;20209;-93
2020/12/21 04:09:32;;;;;;;12.80;4.63;;;9.00;99.90;;;;;;5076083;28;20185;-93
2020/12/21 04:12:18;;;;;;;13.47;4.43;;;9.00;99.90;;;;;;5071611;28;20201;-94
2020/12/21 04:20:59;;;;;;;11.00;3.87;;;9.00;99.90;;;;;;5077902;28;20196;-93
2020/12/21 04:26:23;;;;;;;10.27;4.00;;;9.10;99.90;;;;;;5074566;28;20218;-94
2020/12/21 04:32:08;;;;;;;10.67;3.87;;;9.10;99.90;;;;;;5065380;28;20181;-94
2020/12/21 04:34:39;;;;;;;9.87;3.50;;;9.20;99.90;;;;;;5070908;28;20204;-93
2020/12/21 04:37:21;;;;;;;12.70;4.27;;;9.10;99.90;;;;;;5072878;28;20203;-93
2020/12/21 04:39:58;;;;;;;14.23;4.57;;;9.10;99.90;;;;;;5068851;28;20211;-95
2020/12/21 04:42:34;;;;;;;9.30;4.43;;;9.10;99.90;;;;;;5064714;28;20225;-92
2020/12/21 04:45:09;;;;;;;10.37;4.50;;;9.00;99.90;;;;;;5067748;28;20199;-94
2020/12/21 04:47:47;;;;;;;12.53;5.10;;;8.90;99.90;;;;;;5064038;28;20251;-92
2020/12/21 04:50:19;;;;;;;11.40;4.97;;;8.90;99.90;;;;;;5057550;28;20199;-94
2020/12/21 05:02:24;;;;;;;10.90;5.60;;;8.80;99.90;;;;;;5065325;28;20228;-94
2020/12/21 05:05:16;;;;;;;12.10;5.27;;;8.80;99.90;;;;;;5070951;28;20200;-93
2020/12/21 05:07:55;;;;;;;13.37;5.33;;;8.80;99.90;;;;;;5070798;28;20238;-94
2020/12/21 05:10:36;;;;;;;10.73;5.30;;;8.80;99.90;;;;;;5056200;28;20196;-95
2020/12/21 05:13:13;;;;;;;9.90;4.43;;;8.80;99.90;;;;;;5031981;28;20219;-94
2020/12/21 05:18:45;;;;;;;10.47;5.07;;;8.80;99.90;;;;;;5063635;28;20204;-93
2020/12/21 05:21:32;;;;;;;9.50;4.70;;;8.80;99.90;;;;;;5065927;28;20204;-94
2020/12/21 05:24:27;;;;;;;11.47;4.70;;;8.80;99.90;;;;;;5056434;28;20216;-93
2020/12/21 05:27:29;;;;;;;12.50;5.13;;;8.80;99.90;;;;;;5061933;28;20287;-93
2020/12/21 05:30:12;;;;;;;10.17;4.57;;;8.80;99.90;;;;;;5051417;28;20201;-94
2020/12/21 05:32:45;;;;;;;14.63;5.10;;;8.80;99.90;;;;;;5063351;28;20204;-94
2020/12/21 05:35:22;;;;;;;11.17;5.30;;;8.80;99.90;;;;;;5069563;28;20268;-93
2020/12/21 05:38:08;;;;;;;7.97;4.23;;;8.90;99.90;;;;;;5043896;28;20208;-93
2020/12/21 05:40:45;;;;;;;9.70;5.30;;;8.90;99.90;;;;;;5050106;28;20223;-94
2020/12/21 05:43:30;;;;;;;13.07;4.67;;;8.90;99.90;;;;;;5055988;28;20228;-94
2020/12/21 05:46:16;;;;;;;9.93;4.53;;;8.90;99.90;;;;;;5065638;28;20196;-95
2020/12/21 05:49:02;;;;;;;6.13;4.20;;;8.90;99.90;;;;;;5045712;28;20557;-94
2020/12/21 05:51:37;;;;;;;10.53;5.13;;;8.90;99.90;;;;;;5052110;28;20207;-94
2020/12/21 05:54:13;;;;;;;9.67;4.87;;;8.90;99.90;;;;;;5064123;28;20226;-95
2020/12/21 05:56:45;;;;;;;9.50;5.03;;;8.90;99.90;;;;;;5051049;28;20207;-93
2020/12/21 05:59:20;;;;;;;10.07;5.30;;;8.90;99.90;;;;;;5069376;28;20232;-94
2020/12/21 06:01:59;;;;;;;11.87;4.53;;;8.90;99.90;;;;;;5060434;28;20219;-92
2020/12/21 06:07:52;;;;;;;9.30;4.57;;;8.90;99.90;;;;;;5066423;28;20200;-94
2020/12/21 06:10:35;;;;;;;13.13;5.20;;;8.90;99.90;;;;;;5063295;28;20211;-95
2020/12/21 06:13:26;;;;;;;12.03;4.53;;;8.90;99.90;;;;;;5052745;28;20206;-94
2020/12/21 06:16:16;;;;;;;13.07;4.13;;;8.90;99.90;;;;;;5032008;28;20212;-95
2020/12/21 06:19:08;;;;;;;10.93;4.20;;;8.90;99.90;;;;;;5052826;28;20185;-93
2020/12/21 06:21:46;;;;;;;10.03;4.17;;;8.80;99.90;;;;;;5056625;28;20198;-92
2020/12/21 06:30:43;;;;;;;8.73;3.83;;;8.90;99.90;;;;;;5056838;28;20204;-95
2020/12/21 06:33:19;;;;;;;5.73;3.43;;;8.80;99.90;;;;;;5065871;28;20196;-93
2020/12/21 06:35:50;;;;;;;7.77;4.10;;;8.80;99.90;;;;;;5054955;28;20204;-93
2020/12/21 06:38:20;;;;;;;8.50;3.97;;;8.90;99.90;;;;;;5064683;28;20260;-93
2020/12/21 06:41:15;;;;;;;7.87;3.93;;;8.80;99.90;;;;;;5051154;28;20550;-93
2020/12/21 06:44:08;;;;;;;9.47;3.97;;;8.70;99.90;;;;;;5045603;28;20242;-93
2020/12/21 06:46:41;;;;;;;8.63;4.03;;;8.60;99.90;;;;;;5047221;28;20215;-93
2020/12/21 06:49:15;;;;;;;8.53;3.90;;;8.60;99.90;;;;;;5050798;28;20204;-94
2020/12/21 06:51:50;;;;;;;8.83;3.77;;;8.60;99.90;;;;;;5028144;28;20227;-94
2020/12/21 06:54:22;;;;;;;8.17;3.57;;;8.60;99.90;;;;;;5044233;28;20214;-94
2020/12/21 06:56:56;;;;;;;10.80;4.47;;;8.50;99.90;;;;;;5053951;28;20209;-93
2020/12/21 06:59:28;;;;;;;9.13;4.30;;;8.50;99.90;;;;;;5061824;28;20240;-94
2020/12/21 07:02:02;;;;;;;12.90;4.23;;;8.50;99.90;;;;;;5041267;28;20231;-94
2020/12/21 07:11:15;;;;;;;11.10;4.50;;;8.50;99.90;;;;;;5051462;28;20215;-94
2020/12/21 07:14:06;;;;;;;12.93;4.53;;;8.50;99.90;;;;;;5051424;28;20250;-93
2020/12/21 07:16:38;;;;;;;9.40;4.10;;;8.50;99.90;;;;;;5063737;28;20233;-95
2020/12/21 07:19:25;;;;;;;7.03;4.07;;;8.50;99.90;;;;;;5068478;28;20208;-95
2020/12/21 07:21:56;;;;;;;6.10;3.57;;;8.50;99.90;;;;;;5065907;28;20212;-94
2020/12/21 07:24:28;;;;;;;12.83;5.00;;;8.50;99.90;;;;;;5064479;28;20235;-95
2020/12/21 07:27:08;;;;;;;12.90;4.73;;;8.50;99.90;;;;;;5041059;28;20237;-93
2020/12/21 07:29:47;;;;;;;8.63;3.70;;;8.50;99.90;;;;;;5064492;28;20220;-94
2020/12/21 07:35:34;;;;;;;9.30;4.27;;;8.50;99.90;;;;;;5062222;28;20191;-94
2020/12/21 07:38:19;;;;;;;10.23;4.20;;;8.50;99.90;;;;;;5043909;28;20215;-95
2020/12/21 07:40:54;;;;;;;9.50;4.10;;;8.50;99.90;;;;;;5039084;28;20228;-94
2020/12/21 07:43:37;;;;;;;11.10;3.93;;;8.50;99.90;;;;;;5040529;28;20219;-95
2020/12/21 07:46:25;;;;;;;10.90;4.60;;;8.50;99.90;;;;;;5054393;28;20215;-94
2020/12/21 07:48:58;;;;;;;10.83;4.40;;;8.60;99.90;;;;;;5063426;28;20211;-95
2020/12/21 07:51:47;;;;;;;13.63;4.63;;;8.60;99.90;;;;;;5060536;28;20196;-93
2020/12/21 07:54:21;;;;;;;10.83;4.50;;;8.50;99.90;;;;;;5063869;28;20207;-94
2020/12/21 07:57:10;;;;;;;13.03;4.70;;;8.50;99.90;;;;;;5045973;28;20918;-94
2020/12/21 07:59:43;;;;;;;10.40;4.73;;;8.50;99.90;;;;;;5070139;28;20321;-95
2020/12/21 08:02:28;;;;;;;12.50;4.87;;;8.50;99.90;;;;;;5057353;28;20283;-96
2020/12/21 08:05:21;;;;;;;12.60;4.33;;;8.40;99.90;;;;;;5033240;28;20213;-94
2020/12/21 08:07:52;;;;;;;11.27;4.67;;;8.50;99.90;;;;;;5050118;28;20254;-94
2020/12/21 08:10:25;;;;;;;12.40;4.80;;;8.50;99.90;;;;;;5055002;28;20926;-94
2020/12/21 08:13:00;;;;;;;12.03;4.63;;;8.50;99.90;;;;;;5064539;28;20282;-94
2020/12/21 08:15:33;;;;;;;11.97;5.70;;;8.50;99.90;;;;;;5058609;28;20769;-95
2020/12/21 08:18:11;;;;;;;8.07;5.27;;;8.50;99.90;;;;;;5066180;28;20208;-95
2020/12/21 08:20:51;;;;;;;14.83;5.80;;;8.40;99.90;;;;;;5048434;28;20224;-95
2020/12/21 08:23:26;;;;;;;12.90;5.93;;;8.40;99.90;;;;;;5063176;28;20234;-94
2020/12/21 08:25:58;;;;;;;10.80;5.43;;;8.40;99.90;;;;;;5057801;28;20204;-95
2020/12/21 08:28:37;;;;;;;9.03;5.20;;;8.40;99.90;;;;;;5048051;28;20198;-95
2020/12/21 08:31:13;;;;;;;13.47;5.57;;;8.30;99.90;;;;;;5062111;28;20200;-95
2020/12/21 08:33:57;;;;;;;11.43;4.60;;;8.20;99.90;;;;;;5061147;28;20211;-95
2020/12/21 08:36:34;;;;;;;8.43;4.23;;;8.10;99.90;;;;;;5051775;28;20200;-95
2020/12/21 08:39:27;;;;;;;7.73;3.67;;;8.10;99.90;;;;;;5052535;28;20239;-92
2020/12/21 08:42:04;;;;;;;16.33;3.57;;;8.10;99.90;;;;;;5060966;28;20211;-95
2020/12/21 08:44:37;;;;;;;11.50;3.57;;;8.10;99.90;;;;;;5057467;28;20243;-95
2020/12/21 08:47:10;;;;;;;5.30;2.37;;;8.10;99.90;;;;;;5049515;28;20225;-95
2020/12/21 08:49:42;;;;;;;4.60;2.27;;;8.10;99.90;;;;;;5043016;28;20212;-94
2020/12/21 08:52:13;;;;;;;3.73;1.73;;;8.00;99.90;;;;;;5061239;28;20208;-94
2020/12/21 08:54:44;;;;;;;5.97;2.30;;;7.90;99.90;;;;;;5048605;28;20215;-95
2020/12/21 08:57:16;;;;;;;3.97;1.70;;;7.90;99.90;;;;;;5065684;28;20208;-95
2020/12/21 08:59:50;;;;;;;5.60;1.80;;;7.90;99.90;;;;;;5040238;28;20288;-95
2020/12/21 09:02:22;;;;;;;4.07;1.80;;;7.90;99.90;;;;;;5052558;28;20203;-96
2020/12/21 09:04:53;;;;;;;9.17;1.97;;;7.80;99.90;;;;;;5040137;28;20201;-96
2020/12/21 09:07:36;;;;;;;7.33;2.30;;;7.80;99.90;;;;;;5062642;28;20205;-94
2020/12/21 09:10:07;;;;;;;9.27;2.37;;;7.80;99.90;;;;;;5044802;28;20205;-95
2020/12/21 09:12:39;;;;;;;9.03;1.60;;;7.70;99.90;;;;;;5075206;28;20191;-94
2020/12/21 09:15:19;;;;;;;5.07;1.30;;;7.70;99.90;;;;;;5060354;28;20196;-95
2020/12/21 09:17:53;;;;;;;6.90;1.57;;;7.70;99.90;;;;;;5076807;28;20219;-94
2020/12/21 09:20:41;;;;;;;4.83;1.67;;;7.60;99.90;;;;;;5077689;28;20201;-93
2020/12/21 09:23:25;;;;;;;11.67;2.10;;;7.60;99.90;;;;;;5074172;28;20450;-93
2020/12/21 09:25:56;;;;;;;7.83;2.07;;;7.50;99.90;;;;;;5066619;28;20224;-91
2020/12/21 09:28:26;;;;;;;5.93;2.13;;;7.50;99.90;;;;;;5065885;28;20187;-94
2020/12/21 09:30:59;;;;;;;7.07;1.87;;;7.40;99.90;;;;;;5076207;28;20198;-94
2020/12/21 09:33:30;;;;;;;4.53;2.20;;;7.20;99.90;;;;;;5072854;28;20198;-94
2020/12/21 09:36:01;;;;;;;6.83;2.13;;;7.20;99.90;;;;;;5067105;28;20234;-94
2020/12/21 09:38:33;;;;;;;8.03;2.43;;;7.30;99.90;;;;;;5070254;28;20197;-94
2020/12/21 09:41:04;;;;;;;10.77;2.40;;;7.30;99.90;;;;;;5073541;28;20205;-94
2020/12/21 09:43:40;;;;;;;7.00;1.90;;;7.30;99.90;;;;;;5055932;28;20254;-94
2020/12/21 09:46:19;;;;;;;3.47;2.00;;;7.30;99.90;;;;;;5054050;28;20204;-93
2020/12/21 09:48:51;;;;;;;4.97;2.40;;;7.30;99.90;;;;;;5052320;28;20655;-93
2020/12/21 09:51:22;;;;;;;4.07;1.77;;;7.30;99.90;;;;;;5067584;28;20242;-93
2020/12/21 09:53:53;;;;;;;5.20;1.70;;;7.30;99.90;;;;;;5065443;28;20578;-93
2020/12/21 09:56:24;;;;;;;6.17;2.13;;;7.30;99.90;;;;;;5065461;28;20242;-94
2020/12/21 09:58:57;;;;;;;4.50;1.90;;;7.20;99.90;;;;;;5066335;28;20227;-93
2020/12/21 10:01:32;;;;;;;8.10;1.90;;;7.30;99.90;;;;;;5046475;28;20215;-93
2020/12/21 10:04:05;;;;;;;2.67;2.00;;;7.30;99.90;;;;;;5063655;28;20234;-92
2020/12/21 10:06:37;;;;;;;3.50;1.80;;;7.30;99.90;;;;;;5065489;28;20824;-93
2020/12/21 10:09:08;;;;;;;5.03;1.90;;;7.30;99.90;;;;;;5065221;28;20224;-93
2020/12/21 10:11:40;;;;;;;5.47;2.20;;;7.20;99.90;;;;;;5045814;28;20266;-94
2020/12/21 10:14:13;;;;;;;4.87;1.90;;;7.20;99.90;;;;;;5046724;28;20292;-94
2020/12/21 10:16:46;;;;;;;10.03;1.87;;;7.30;99.90;;;;;;5056982;28;20200;-93
2020/12/21 10:19:18;;;;;;;3.20;1.20;;;7.30;99.90;;;;;;5050499;28;20218;-92
2020/12/21 10:21:52;;;;;;;8.07;1.80;;;7.30;99.90;;;;;;5051612;28;20220;-94
2020/12/21 10:24:32;;;;;;;7.60;1.93;;;7.30;99.90;;;;;;5048800;28;20260;-94
2020/12/21 10:27:04;;;;;;;6.13;1.50;;;7.30;99.90;;;;;;5046771;28;20222;-94
2020/12/21 10:29:36;;;;;;;4.50;1.80;;;7.30;99.90;;;;;;5061554;28;20227;-94
2020/12/21 10:32:10;;;;;;;5.10;1.60;;;7.30;99.90;;;;;;5066163;28;20210;-94
2020/12/21 10:37:23;;;;;;;5.50;2.13;;;7.30;99.90;;;;;;5214662;22;20231;-91
2020/12/21 10:40:03;;;;;;;5.93;2.10;;;7.20;99.90;;;;;;5043407;28;20245;-93
2020/12/21 10:42:34;;;;;;;9.60;2.47;;;7.20;99.90;;;;;;5025292;28;20253;-94
2020/12/21 10:45:05;;;;;;;5.17;2.50;;;7.30;99.90;;;;;;5038014;28;20210;-93
2020/12/21 10:47:37;;;;;;;5.80;2.47;;;7.30;99.90;;;;;;5024071;28;20207;-93
2020/12/21 10:50:08;;;;;;;10.30;3.00;;;7.30;99.90;;;;;;5007392;28;20208;-92
2020/12/21 10:52:40;;;;;;;6.90;2.27;;;7.30;99.90;;;;;;5025071;28;20200;-93
2020/12/21 10:55:11;;;;;;;8.83;2.50;;;7.30;99.90;;;;;;5039936;28;20216;-93
2020/12/21 11:00:42;;;;;;;3.83;1.93;;;7.30;99.90;;;;;;5137742;22;20314;-93
2020/12/21 11:03:14;;;;;;;6.10;2.30;;;7.30;99.90;;;;;;5065492;28;20239;-93
2020/12/21 11:05:46;;;;;;;7.20;2.27;;;7.30;99.90;;;;;;5065443;28;20214;-93
2020/12/21 11:11:01;;;;;;;6.27;2.00;;;7.30;99.90;;;;;;5052912;28;20200;-93
2020/12/21 11:16:20;;;;;;;3.20;1.90;;;7.20;99.90;;;;;;5058387;28;20766;-93
2020/12/21 11:18:53;;;;;;;5.20;1.60;;;7.30;99.90;;;;;;5050054;28;20266;-94
2020/12/21 11:21:23;;;;;;;17.10;2.53;;;7.20;99.90;;;;;;5056656;28;20208;-93
2020/12/21 11:24:02;;;;;;;8.43;2.00;;;7.20;99.90;;;;;;5047613;28;20250;-94
2020/12/21 11:26:35;;;;;;;4.50;1.70;;;7.20;99.90;;;;;;5070067;28;20195;-93
2020/12/21 11:29:10;;;;;;;5.47;1.30;;;7.30;99.90;;;;;;5057333;28;20211;-93
2020/12/21 11:31:42;;;;;;;3.43;1.50;;;7.20;99.90;;;;;;5069974;28;20643;-94
2020/12/21 11:34:17;;;;;;;6.43;1.83;;;7.20;99.90;;;;;;5052931;28;20212;-94
2020/12/21 11:36:48;;;;;;;4.67;1.47;;;7.10;99.90;;;;;;5058392;28;20247;-93
2020/12/21 11:39:19;;;;;;;2.03;1.33;;;7.10;99.90;;;;;;5066527;28;20214;-93
2020/12/21 11:41:53;;;;;;;5.07;1.50;;;7.10;99.90;;;;;;5049353;28;20236;-93
2020/12/21 11:44:26;;;;;;;4.70;1.50;;;7.10;99.90;;;;;;5056453;28;20288;-91
2020/12/21 11:46:58;;;;;;;17.77;2.23;;;7.10;99.90;;;;;;5061220;28;20242;-92
2020/12/21 11:49:35;;;;;;;4.57;1.60;;;7.00;99.90;;;;;;5058490;28;20222;-93
2020/12/21 11:52:07;;;;;;;4.80;1.57;;;7.10;99.90;;;;;;5069292;28;20235;-92
2020/12/21 11:54:39;;;;;;;9.50;1.73;;;7.10;99.90;;;;;;5053367;28;20197;-93
2020/12/21 11:57:12;;;;;;;5.70;1.57;;;7.10;99.90;;;;;;5072007;28;20200;-93
2020/12/21 11:59:44;;;;;;;11.40;2.07;;;7.10;99.90;;;;;;5071093;28;20188;-93
2020/12/21 12:02:15;;;;;;;6.20;2.03;;;7.10;99.90;;;;;;5070504;28;20192;-93
2020/12/21 12:04:58;;;;;;;6.37;1.63;;;7.10;99.90;;;;;;5070544;28;20265;-92
2020/12/21 12:07:33;;;;;;;3.20;1.33;;;7.10;99.90;;;;;;5073807;28;20312;-94
2020/12/21 12:10:04;;;;;;;3.97;1.50;;;7.10;99.90;;;;;;5073599;28;20197;-94
2020/12/21 12:12:35;;;;;;;4.07;1.67;;;7.00;99.90;;;;;;5070620;28;20200;-93
2020/12/21 12:15:07;;;;;;;3.40;1.10;;;7.00;99.90;;;;;;5074952;28;20205;-93
2020/12/21 12:17:38;;;;;;;5.17;1.50;;;7.00;99.90;;;;;;5040553;28;20200;-92
2020/12/21 12:20:13;;;;;;;5.53;1.20;;;7.00;99.90;;;;;;5053537;28;20205;-93
2020/12/21 12:22:44;;;;;;;3.67;1.20;;;7.00;99.90;;;;;;5069635;28;20207;-93
2020/12/21 12:25:18;;;;;;;6.13;1.10;;;7.00;99.90;;;;;;5071034;28;20199;-95
2020/12/21 12:27:51;;;;;;;4.70;1.20;;;7.10;99.90;;;;;;5057413;28;20208;-94
2020/12/21 12:30:22;;;;;;;1.53;1.20;;;7.10;99.90;;;;;;5065934;28;20222;-93
2020/12/21 12:32:53;;;;;;;3.13;1.33;;;7.00;99.90;;;;;;5070979;28;20247;-93
2020/12/21 12:35:25;;;;;;;4.07;1.30;;;7.00;99.90;;;;;;5068453;28;20224;-93
2020/12/21 12:37:55;;;;;;;5.13;1.40;;;7.00;99.90;;;;;;5056634;28;20246;-93
2020/12/21 12:40:26;;;;;;;6.27;1.37;;;7.00;99.90;;;;;;5067014;28;20208;-92
2020/12/21 12:43:06;;;;;;;3.63;1.63;;;7.10;99.90;;;;;;5052879;28;20248;-93
2020/12/21 12:45:38;;;;;;;2.80;1.17;;;7.00;99.90;;;;;;5047392;28;20220;-93
2020/12/21 12:48:08;;;;;;;2.27;1.23;;;7.00;99.90;;;;;;5049682;28;20231;-93
2020/12/21 12:50:42;;;;;;;2.60;1.27;;;7.00;99.90;;;;;;5062155;28;20212;-93
2020/12/21 12:53:14;;;;;;;6.10;1.43;;;6.90;99.90;;;;;;5063402;28;20598;-93
2020/12/21 12:55:44;;;;;;;1.73;1.00;;;6.90;99.90;;;;;;5051000;28;20192;-92
2020/12/21 12:58:19;;;;;;;4.07;1.00;;;6.90;99.90;;;;;;5067514;28;20247;-93
2020/12/21 13:03:40;;;;;;;2.70;1.20;;;6.80;99.90;;;;;;5052718;28;20327;-94
2020/12/21 13:06:23;;;;;;;4.47;1.07;;;6.80;99.90;;;;;;5068647;28;20221;-94
2020/12/21 13:08:56;;;;;;;2.93;1.03;;;6.80;99.90;;;;;;5068724;28;20616;-94
2020/12/21 13:11:27;;;;;;;1.93;0.83;;;6.80;99.90;;;;;;5061387;28;20266;-94
2020/12/21 13:13:59;;;;;;;3.57;1.20;;;6.80;99.90;;;;;;5030221;28;20204;-93
2020/12/21 13:16:34;;;;;;;2.33;1.20;;;6.80;99.90;;;;;;5053278;28;20238;-93
2020/12/21 13:21:53;;;;;;;1.70;0.90;;;6.80;99.90;;;;;;5054864;28;20200;-93
2020/12/21 13:24:24;;;;;;;1.00;0.60;;;6.70;99.90;;;;;;5048968;28;20228;-94
2020/12/21 13:26:55;;;;;;;2.40;0.93;;;6.70;99.90;;;;;;5055227;28;20848;-94
2020/12/21 13:29:30;;;;;;;1.17;0.50;;;6.70;99.90;;;;;;5050727;28;20239;-93
2020/12/21 13:32:03;;;;;;;2.00;0.70;;;6.70;99.90;;;;;;5053008;28;20180;-93
2020/12/21 13:34:37;;;;;;;3.20;0.80;;;6.70;99.90;;;;;;5068632;28;20442;-93
2020/12/21 13:37:25;;;;;;;3.10;0.83;;;6.60;99.90;;;;;;5048600;28;20197;-93
2020/12/21 13:39:55;;;;;;;6.20;0.93;;;6.70;99.90;;;;;;5055358;28;20254;-92
2020/12/21 13:42:27;;;;;;;1.20;0.70;;;6.70;99.90;;;;;;5066710;28;20211;-93
2020/12/21 13:44:59;;;;;;;1.80;1.00;;;6.70;99.90;;;;;;5061663;28;20224;-93
2020/12/21 13:47:32;;;;;;;2.43;0.70;;;6.60;99.90;;;;;;5057190;28;20237;-93
2020/12/21 13:50:12;;;;;;;3.37;0.77;;;6.60;99.90;;;;;;5051202;28;20236;-93
2020/12/21 13:53:25;;;;;;;1.33;0.80;;;6.60;99.90;;;;;;5053137;28;20220;-94
2020/12/21 13:55:58;;;;;;;4.37;0.83;;;6.60;99.90;;;;;;5049026;28;20604;-93
2020/12/21 13:58:30;;;;;;;3.77;0.87;;;6.60;99.90;;;;;;5050030;28;20268;-94
2020/12/21 14:01:02;;;;;;;1.17;0.70;;;6.60;99.90;;;;;;5048527;28;20220;-93
2020/12/21 14:03:34;;;;;;;1.97;0.80;;;6.60;99.90;;;;;;5060414;28;20312;-93
2020/12/21 14:06:06;;;;;;;2.70;0.80;;;6.60;99.90;;;;;;5062210;28;20648;-94
2020/12/21 14:08:39;;;;;;;1.47;0.70;;;6.60;99.90;;;;;;5063852;28;20201;-94
2020/12/21 14:11:27;;;;;;;2.30;0.93;;;6.60;99.90;;;;;;5051229;28;20188;-93
2020/12/21 14:13:59;;;;;;;7.93;0.80;;;6.60;99.90;;;;;;5070601;28;20207;-93
2020/12/21 14:16:34;;;;;;;1.83;0.70;;;6.60;99.90;;;;;;5074471;28;20202;-93
2020/12/21 14:19:05;;;;;;;1.03;0.70;;;6.60;99.90;;;;;;5072554;28;20209;-94
2020/12/21 14:21:38;;;;;;;0.50;0.50;;;6.60;99.90;;;;;;5066700;28;20208;-94
2020/12/21 14:24:21;;;;;;;3.07;0.40;;;6.60;99.90;;;;;;5070965;28;20227;-94
2020/12/21 14:26:55;;;;;;;1.37;0.83;;;6.60;99.90;;;;;;5058457;28;20195;-94
2020/12/21 14:29:42;;;;;;;0.70;0.50;;;6.60;99.90;;;;;;5042475;28;20215;-94
2020/12/21 14:32:16;;;;;;;2.30;0.60;;;6.60;99.90;;;;;;5050455;28;20197;-94
2020/12/21 14:34:47;;;;;;;1.37;0.50;;;6.60;99.90;;;;;;5065920;28;20208;-93
2020/12/21 14:37:19;;;;;;;1.93;0.60;;;6.60;99.90;;;;;;5063807;28;20212;-94
2020/12/21 14:39:50;;;;;;;0.80;0.80;;;6.60;99.90;;;;;;5050618;28;20206;-94
2020/12/21 14:42:38;;;;;;;5.13;0.60;;;6.60;99.90;;;;;;5045352;28;20212;-93
2020/12/21 14:45:08;;;;;;;2.80;0.40;;;6.70;99.90;;;;;;5062944;28;20235;-93
2020/12/21 14:47:39;;;;;;;3.90;0.70;;;6.70;99.90;;;;;;5065730;28;20204;-94
2020/12/21 14:50:11;;;;;;;7.10;0.67;;;6.60;99.90;;;;;;5045831;28;20210;-94
2020/12/21 14:52:42;;;;;;;5.20;0.70;;;6.60;99.90;;;;;;5054871;28;20831;-94
2020/12/21 14:55:13;;;;;;;3.73;0.43;;;6.60;99.90;;;;;;5047789;28;20209;-93
2020/12/21 14:57:47;;;;;;;2.00;0.70;;;6.70;99.90;;;;;;5057861;28;20207;-93
2020/12/21 15:00:18;;;;;;;4.10;0.70;;;6.60;99.90;;;;;;5055576;28;20560;-94
2020/12/21 15:02:56;;;;;;;2.60;0.50;;;6.70;99.90;;;;;;5065100;28;20208;-93
2020/12/21 15:05:29;;;;;;;1.90;0.50;;;6.70;99.90;;;;;;5063282;28;20232;-93
2020/12/21 15:08:00;;;;;;;0.90;0.70;;;6.60;99.90;;;;;;5055321;28;20687;-94
2020/12/21 15:10:31;;;;;;;1.00;0.50;;;6.60;99.90;;;;;;5056802;28;20197;-94
2020/12/21 15:13:04;;;;;;;0.50;0.50;;;6.70;99.90;;;;;;5061834;28;20246;-94
2020/12/21 15:15:35;;;;;;;1.00;0.73;;;6.60;99.90;;;;;;5060473;28;20205;-94
2020/12/21 15:18:08;;;;;;;0.50;0.50;;;6.50;99.90;;;;;;5028854;28;20284;-93
2020/12/21 15:20:39;;;;;;;0.70;0.70;;;6.60;99.90;;;;;;5046594;28;20204;-95
2020/12/21 15:23:10;;;;;;;1.00;1.00;;;6.60;99.90;;;;;;5066070;28;20197;-92
2020/12/21 15:25:41;;;;;;;0.83;0.83;;;6.70;99.90;;;;;;5065477;28;20280;-94
2020/12/21 15:28:13;;;;;;;0.70;0.70;;;6.70;99.90;;;;;;5045962;28;20205;-94
2020/12/21 15:30:46;;;;;;;1.00;0.70;;;6.70;99.90;;;;;;5047133;28;20210;-95
2020/12/21 15:33:16;;;;;;;1.70;1.00;;;6.60;99.90;;;;;;5047132;28;20239;-94
2020/12/21 15:35:46;;;;;;;0.80;0.73;;;6.60;99.90;;;;;;5067411;28;20208;-94
2020/12/21 15:38:18;;;;;;;1.23;0.80;;;6.60;99.90;;;;;;5067477;28;20688;-93